Time;durP1;ratioP1;P1;durP2;ratioP2;P2;SDS_P1;SDS_P2;PMS_P1;PMS_P2;Temp;Humidity;BMP_temperature;BMP_pressure;BME280_temperature;BME280_humidity;BME280_pressure;Samples;Min_cycle;Max_cycle;Signal;HPM_P1;HPM_P2
2023/02/19 00:00:39;;;;;;;22.88;10.73;;;;;;;9.88;100.00;101973.34;5224970;28;20036;-75
2023/02/19 00:03:09;;;;;;;24.85;10.18;;;;;;;9.89;100.00;101972.38;5219203;28;20030;-75
2023/02/19 00:05:40;;;;;;;28.05;10.82;;;;;;;9.88;100.00;101979.56;5216240;28;20584;-75
2023/02/19 00:08:10;;;;;;;23.95;10.70;;;;;;;9.92;100.00;101994.41;5224480;28;20021;-75
2023/02/19 00:10:40;;;;;;;26.27;11.02;;;;;;;9.92;100.00;101986.34;5224379;28;20021;-75
2023/02/19 00:13:11;;;;;;;25.88;11.30;;;;;;;9.88;100.00;101979.56;5224603;28;20386;-75
2023/02/19 00:15:42;;;;;;;22.58;10.20;;;;;;;9.90;100.00;101979.44;5206492;28;20397;-75
2023/02/19 00:18:12;;;;;;;24.92;11.18;;;;;;;9.89;100.00;101981.28;5223790;28;20162;-75
2023/02/19 00:20:43;;;;;;;21.02;10.43;;;;;;;9.91;100.00;101984.66;5224166;28;20095;-75
2023/02/19 00:23:13;;;;;;;25.13;11.30;;;;;;;9.91;100.00;101973.94;5224511;28;20041;-75
2023/02/19 00:25:44;;;;;;;24.33;10.43;;;;;;;9.96;100.00;101973.53;5224232;28;20020;-75
2023/02/19 00:28:14;;;;;;;25.38;11.05;;;;;;;9.96;100.00;101971.72;5223870;28;20029;-75
2023/02/19 00:30:45;;;;;;;22.50;10.82;;;;;;;9.96;100.00;101968.19;5223684;28;20029;-75
2023/02/19 00:33:15;;;;;;;25.80;10.57;;;;;;;9.96;100.00;101971.72;5224279;28;20508;-75
2023/02/19 00:35:46;;;;;;;25.25;10.55;;;;;;;9.94;100.00;101972.81;5223927;28;20389;-75
2023/02/19 00:38:16;;;;;;;25.10;11.10;;;;;;;9.93;100.00;101971.97;5223647;28;20036;-75
2023/02/19 00:40:47;;;;;;;27.30;11.68;;;;;;;9.94;100.00;101962.09;5224012;28;20387;-75
2023/02/19 00:43:17;;;;;;;23.98;10.57;;;;;;;9.93;100.00;101963.91;5223576;28;20021;-75
2023/02/19 00:45:48;;;;;;;20.27;10.77;;;;;;;9.90;100.00;101956.16;5223918;28;20025;-75
2023/02/19 00:48:18;;;;;;;23.88;11.20;;;;;;;9.89;100.00;101972.38;5223613;28;20099;-75
2023/02/19 00:50:49;;;;;;;28.20;10.02;;;;;;;9.96;100.00;101966.34;5223767;28;20036;-75
2023/02/19 00:53:19;;;;;;;29.98;11.32;;;;;;;9.99;100.00;101966.09;5223806;28;20017;-75
2023/02/19 00:55:50;;;;;;;21.77;10.98;;;;;;;9.97;100.00;101973.41;5223399;28;20520;-75
2023/02/19 00:58:20;;;;;;;25.58;11.02;;;;;;;9.97;100.00;101973.41;5222979;28;20420;-75
2023/02/19 01:00:51;;;;;;;27.33;11.45;;;;;;;9.96;100.00;101971.72;5223777;28;20021;-75
2023/02/19 01:03:21;;;;;;;29.58;12.07;;;;;;;9.96;100.00;101974.38;5223596;28;20035;-75
2023/02/19 01:05:53;;;;;;;27.45;11.23;;;;;;;9.93;100.00;101976.47;5223436;28;20492;-75
2023/02/19 01:08:24;;;;;;;25.40;11.15;;;;;;;9.96;100.00;101992.31;5222999;28;20043;-75
2023/02/19 01:10:54;;;;;;;26.13;10.60;;;;;;;9.98;100.00;101985.81;5223474;28;20055;-75
2023/02/19 01:13:25;;;;;;;26.88;11.05;;;;;;;9.98;100.00;101988.50;5223752;28;20029;-75
2023/02/19 01:16:15;;;;;;;27.02;11.38;;;;;;;10.00;100.00;101981.19;5223619;28;20021;-75
2023/02/19 01:18:47;;;;;;;23.33;10.85;;;;;;;9.98;100.00;101993.84;5223008;28;20083;-75
2023/02/19 01:21:20;;;;;;;26.40;10.80;;;;;;;9.96;100.00;101992.31;5223543;28;20029;-75
2023/02/19 01:23:51;;;;;;;26.27;11.13;;;;;;;9.97;100.00;101985.97;5223442;28;20029;-75
2023/02/19 01:26:31;;;;;;;23.10;11.00;;;;;;;9.96;100.00;101998.50;5225434;28;20085;-75
2023/02/19 01:29:02;;;;;;;23.48;11.00;;;;;;;9.94;100.00;101997.81;5227607;28;20024;-75
2023/02/19 01:31:33;;;;;;;23.00;10.70;;;;;;;9.95;100.00;101999.50;5228046;28;20036;-75
2023/02/19 01:34:03;;;;;;;25.77;10.25;;;;;;;9.91;100.00;101997.22;5210012;28;20025;-75
2023/02/19 01:36:34;;;;;;;25.77;11.25;;;;;;;9.91;100.00;101998.06;5209644;28;20440;-75
2023/02/19 01:39:05;;;;;;;23.90;11.23;;;;;;;9.88;100.00;101992.97;5227852;28;20029;-75
2023/02/19 01:41:38;;;;;;;21.08;10.00;;;;;;;9.87;100.00;102007.34;5227211;28;20033;-75
2023/02/19 01:44:10;;;;;;;22.30;11.55;;;;;;;9.84;100.00;102004.97;5227631;28;20025;-75
2023/02/19 01:46:43;;;;;;;25.90;9.90;;;;;;;9.83;100.00;102003.22;5209216;28;20032;-75
2023/02/19 01:49:21;;;;;;;20.17;10.10;;;;;;;9.83;100.00;102000.56;5227666;28;20100;-75
2023/02/19 01:51:56;;;;;;;21.20;9.18;;;;;;;9.79;100.00;102002.66;5227113;28;20082;-75
2023/02/19 01:54:35;;;;;;;20.33;8.70;;;;;;;9.80;100.00;101995.47;5227420;28;20050;-75
2023/02/19 01:57:11;;;;;;;20.83;8.85;;;;;;;9.79;100.00;101994.63;5227314;28;20044;-75
2023/02/19 01:59:42;;;;;;;19.40;8.70;;;;;;;9.80;100.00;101998.16;5226943;28;20397;-75
2023/02/19 02:02:12;;;;;;;21.52;8.82;;;;;;;9.80;100.00;101995.47;5227669;28;20040;-75
2023/02/19 02:04:43;;;;;;;24.45;8.80;;;;;;;9.80;100.00;101999.00;5214141;28;20024;-75
2023/02/19 02:12:56;;;;;;;31.20;7.70;;;;;;;9.77;100.00;102001.09;5211763;28;20613;-75
2023/02/19 02:15:36;;;;;;;17.20;7.15;;;;;;;9.75;100.00;102000.38;5227228;28;20033;-75
2023/02/19 02:18:30;;;;;;;20.48;6.93;;;;;;;9.77;100.00;102007.28;5214708;28;20071;-75
2023/02/19 02:21:34;;;;;;;19.63;8.43;;;;;;;9.77;100.00;102017.16;5226917;28;20389;-75
2023/02/19 02:24:27;;;;;;;21.77;6.28;;;;;;;9.82;100.00;102007.75;5209022;28;20037;-75
2023/02/19 02:27:16;;;;;;;19.02;5.55;;;;;;;9.81;100.00;101999.84;5226609;28;20017;-75
2023/02/19 02:30:14;;;;;;;22.13;5.10;;;;;;;9.79;100.00;102009.88;5226788;28;20474;-75
2023/02/19 02:32:52;;;;;;;17.75;5.50;;;;;;;9.74;100.00;102009.38;5215408;28;20070;-75
2023/02/19 02:35:29;;;;;;;18.88;4.90;;;;;;;9.73;100.00;102007.69;5226811;28;20108;-75
2023/02/19 02:38:06;;;;;;;13.73;5.07;;;;;;;9.70;100.00;102016.03;5224924;28;20478;-75
2023/02/19 02:40:41;;;;;;;14.57;4.97;;;;;;;9.66;100.00;102010.06;5209000;28;20090;-75
2023/02/19 02:43:12;;;;;;;19.00;4.65;;;;;;;9.66;100.00;102011.91;5226810;28;20052;-75
2023/02/19 02:45:42;;;;;;;16.17;4.78;;;;;;;9.66;100.00;102012.75;5209066;28;20079;-75
2023/02/19 02:48:17;;;;;;;17.20;4.32;;;;;;;9.66;100.00;102006.53;5225970;28;20478;-75
2023/02/19 02:51:10;;;;;;;11.17;3.70;;;;;;;9.64;100.00;102013.84;5209060;28;20037;-75
2023/02/19 02:57:00;;;;;;;12.77;3.63;;;;;;;9.66;100.00;102017.25;5214197;28;20108;-74
2023/02/19 02:59:36;;;;;;;13.65;3.50;;;;;;;9.63;100.00;102013.00;5208335;28;20654;-75
2023/02/19 03:02:25;;;;;;;;;;;;;;;9.62;100.00;102022.03;5209447;28;20444;-75
2023/02/19 03:08:20;;;;;;;12.90;3.00;;;;;;;9.59;100.00;102030.34;5227909;28;20096;-75
2023/02/19 03:10:55;;;;;;;12.90;3.35;;;;;;;9.67;100.00;102027.00;5239541;28;20031;-75
2023/02/19 03:19:18;;;;;;;15.48;3.35;;;;;;;9.54;100.00;102038.75;5226396;28;20029;-75
2023/02/19 03:21:52;;;;;;;14.38;3.40;;;;;;;9.56;100.00;102033.28;5226164;28;20079;-75
2023/02/19 03:27:19;;;;;;;11.70;3.78;;;;;;;9.57;100.00;102041.16;5225862;28;20020;-75
2023/02/19 03:29:52;;;;;;;9.10;2.70;;;;;;;9.54;100.00;102041.44;5225388;28;20025;-75
2023/02/19 03:32:30;;;;;;;14.85;3.28;;;;;;;9.50;100.00;102041.84;5225742;28;20029;-75
2023/02/19 03:35:10;;;;;;;13.32;3.08;;;;;;;9.51;100.00;102039.00;5225678;28;20100;-75
2023/02/19 03:37:46;;;;;;;10.07;2.88;;;;;;;9.48;100.00;102049.13;5206735;28;20439;-75
2023/02/19 03:40:17;;;;;;;20.30;2.78;;;;;;;9.50;100.00;102041.84;5223264;28;20116;-75
2023/02/19 03:42:56;;;;;;;15.05;3.15;;;;;;;9.49;100.00;102043.66;5223609;28;20104;-75
2023/02/19 03:45:39;;;;;;;11.98;2.67;;;;;;;9.46;100.00;102043.06;5225282;28;20025;-75
2023/02/19 03:48:33;;;;;;;17.17;2.80;;;;;;;9.42;100.00;102053.19;5207309;28;20052;-75
2023/02/19 03:51:26;;;;;;;14.15;3.13;;;;;;;9.42;100.00;102052.34;5225328;28;20033;-75
2023/02/19 03:54:15;;;;;;;18.23;3.00;;;;;;;9.45;100.00;102052.94;5204001;28;20505;-75
2023/02/19 03:56:52;;;;;;;19.52;3.78;;;;;;;9.49;100.00;102058.91;5224228;28;20069;-75
2023/02/19 03:59:33;;;;;;;17.55;4.25;;;;;;;9.49;100.00;102066.94;5224728;28;20051;-75
2023/02/19 04:02:10;;;;;;;14.10;3.30;;;;;;;9.47;100.00;102072.38;5225590;28;20057;-75
2023/02/19 04:05:16;;;;;;;15.90;4.05;;;;;;;9.45;100.00;102079.72;5225144;28;20492;-75
2023/02/19 04:07:51;;;;;;;17.67;3.37;;;;;;;9.48;100.00;102083.94;5224645;28;20055;-75
2023/02/19 04:10:22;;;;;;;17.42;4.40;;;;;;;9.49;100.00;102096.41;5224981;28;20116;-75
2023/02/19 04:13:28;;;;;;;11.90;2.85;;;;;;;9.44;100.00;102094.09;5206992;28;20028;-75
2023/02/19 04:16:06;;;;;;;11.38;2.72;;;;;;;9.41;100.00;102088.97;5224315;28;20033;-75
2023/02/19 04:18:40;;;;;;;15.85;3.15;;;;;;;9.43;100.00;102092.38;5224871;28;20021;-75
2023/02/19 04:21:12;;;;;;;21.50;3.33;;;;;;;9.46;100.00;102093.97;5224410;28;20085;-75
2023/02/19 04:23:44;;;;;;;20.20;4.65;;;;;;;9.46;100.00;102099.31;5206969;28;20086;-75
2023/02/19 04:26:16;;;;;;;11.07;2.25;;;;;;;9.43;100.00;102089.69;5233225;22;20057;-74
2023/02/19 04:28:47;;;;;;;21.02;3.20;;;;;;;9.45;100.00;102097.63;5223809;28;20032;-74
2023/02/19 04:31:17;;;;;;;13.95;2.97;;;;;;;9.45;100.00;102097.63;5224311;28;20025;-74
2023/02/19 04:33:48;;;;;;;11.82;2.85;;;;;;;9.43;100.00;102095.06;5224228;28;20078;-74
2023/02/19 04:36:18;;;;;;;19.23;3.30;;;;;;;9.42;100.00;102100.53;5223956;28;20017;-74
2023/02/19 04:38:49;;;;;;;20.70;3.65;;;;;;;9.41;100.00;102101.53;5223466;28;20136;-74
2023/02/19 04:41:19;;;;;;;19.33;3.22;;;;;;;9.42;100.00;102109.44;5223746;28;20029;-74
2023/02/19 04:43:50;;;;;;;17.63;4.25;;;;;;;9.41;100.00;102107.72;5224765;28;20505;-74
2023/02/19 04:46:22;;;;;;;17.52;3.40;;;;;;;9.37;100.00;102117.00;5223613;28;20028;-74
2023/02/19 04:48:52;;;;;;;12.25;2.60;;;;;;;9.36;100.00;102115.31;5224109;28;20048;-73
2023/02/19 04:51:23;;;;;;;20.00;2.90;;;;;;;9.39;100.00;102117.75;5223611;28;20082;-74
2023/02/19 04:53:55;;;;;;;15.55;2.40;;;;;;;9.42;100.00;102117.47;5224095;28;20021;-74
2023/02/19 04:56:25;;;;;;;14.52;3.40;;;;;;;9.44;100.00;102123.56;5223468;28;20070;-74
2023/02/19 04:58:56;;;;;;;16.55;5.35;;;;;;;9.44;100.00;102125.34;5223776;28;20033;-74
2023/02/19 05:01:26;;;;;;;16.20;2.97;;;;;;;9.46;100.00;102129.63;5222509;28;20032;-74
2023/02/19 05:03:57;;;;;;;21.65;3.33;;;;;;;9.47;100.00;102135.84;5211675;28;20028;-74
2023/02/19 05:06:27;;;;;;;17.27;2.75;;;;;;;9.47;100.00;102133.16;5221980;28;20017;-74
2023/02/19 05:08:58;;;;;;;15.32;2.78;;;;;;;9.46;100.00;102139.50;5223806;28;20112;-74
2023/02/19 05:11:28;;;;;;;16.35;3.20;;;;;;;9.54;100.00;102132.53;5222749;28;20521;-74
2023/02/19 05:13:59;;;;;;;22.63;3.38;;;;;;;9.51;100.00;102132.78;5222178;28;20526;-74
2023/02/19 05:16:29;;;;;;;13.52;2.60;;;;;;;9.59;100.00;102140.19;5223178;28;21019;-74
2023/02/19 05:19:00;;;;;;;21.05;2.92;;;;;;;9.56;100.00;102137.75;5223685;28;20040;-74
2023/02/19 05:21:30;;;;;;;12.02;2.72;;;;;;;9.51;100.00;102137.28;5222392;28;20474;-74
2023/02/19 05:24:01;;;;;;;19.23;3.20;;;;;;;9.52;100.00;102147.00;5223632;28;20461;-74
2023/02/19 05:26:32;;;;;;;18.08;3.03;;;;;;;9.50;100.00;102157.03;5221587;28;20021;-73
2023/02/19 05:29:02;;;;;;;14.02;3.13;;;;;;;9.50;100.00;102157.88;5223357;28;20024;-74
2023/02/19 05:31:33;;;;;;;18.95;4.47;;;;;;;9.54;100.00;102163.84;5223552;28;20020;-74
2023/02/19 05:34:03;;;;;;;19.25;3.40;;;;;;;9.52;100.00;102163.94;5223575;28;20031;-74
2023/02/19 05:36:35;;;;;;;20.60;2.95;;;;;;;9.51;100.00;102158.72;5222955;28;20021;-74
2023/02/19 05:39:08;;;;;;;21.20;3.83;;;;;;;9.51;100.00;102169.44;5223260;28;20029;-74
2023/02/19 05:41:38;;;;;;;16.98;3.17;;;;;;;9.46;100.00;102185.88;5222996;28;20027;-74
2023/02/19 05:44:10;;;;;;;21.63;3.20;;;;;;;9.46;100.00;102185.03;5223528;28;20471;-74
2023/02/19 05:46:40;;;;;;;21.80;3.05;;;;;;;9.45;100.00;102173.47;5222864;28;20463;-74
2023/02/19 05:49:11;;;;;;;14.02;3.22;;;;;;;9.42;100.00;102178.22;5223648;28;20032;-74
2023/02/19 05:51:41;;;;;;;13.30;2.85;;;;;;;9.48;100.00;102181.22;5222696;28;20040;-74
2023/02/19 05:54:12;;;;;;;22.17;4.10;;;;;;;9.51;100.00;102186.34;5223438;28;20035;-74
2023/02/19 05:56:42;;;;;;;24.77;3.28;;;;;;;9.43;100.00;102194.16;5222578;28;20021;-73
2023/02/19 05:59:30;;;;;;;16.67;2.97;;;;;;;9.40;100.00;102190.91;5222973;28;20028;-74
2023/02/19 06:02:01;;;;;;;16.17;2.88;;;;;;;9.39;100.00;102195.41;5222900;28;20067;-74
2023/02/19 06:04:31;;;;;;;38.58;12.85;;;;;;;9.37;100.00;102204.53;5223142;28;20049;-74
2023/02/19 06:07:01;;;;;;;38.72;11.50;;;;;;;9.33;100.00;102204.78;5222881;28;20103;-74
2023/02/19 06:09:32;;;;;;;102.68;39.42;;;;;;;9.28;100.00;102206.13;5223093;28;20021;-73
2023/02/19 06:12:03;;;;;;;42.95;17.75;;;;;;;9.34;100.00;102201.16;5223644;28;20029;-74
2023/02/19 06:14:33;;;;;;;30.20;8.95;;;;;;;9.34;100.00;102206.50;5226866;28;20032;-74
2023/02/19 06:17:03;;;;;;;48.40;15.65;;;;;;;9.32;100.00;102203.06;5226600;28;20104;-73
2023/02/19 06:19:34;;;;;;;30.20;7.00;;;;;;;9.37;100.00;102202.69;5227210;28;20547;-74
2023/02/19 06:22:05;;;;;;;51.30;23.35;;;;;;;9.37;100.00;102204.53;5227002;28;20056;-74
2023/02/19 06:24:36;;;;;;;82.88;36.70;;;;;;;9.33;100.00;102210.13;5225817;28;20037;-74
2023/02/19 06:27:07;;;;;;;23.25;5.75;;;;;;;9.29;100.00;102213.22;5225964;28;20440;-74
2023/02/19 06:29:38;;;;;;;30.08;9.98;;;;;;;9.24;100.00;102210.91;5226679;28;20497;-74
2023/02/19 06:32:09;;;;;;;25.40;9.15;;;;;;;9.22;100.00;102203.94;5226543;28;20037;-74
2023/02/19 06:34:39;;;;;;;41.42;19.83;;;;;;;9.16;100.00;102213.34;5226901;28;20033;-74
2023/02/19 06:37:10;;;;;;;34.08;15.65;;;;;;;9.18;100.00;102215.88;5226001;28;20128;-74
2023/02/19 06:39:41;;;;;;;20.77;5.80;;;;;;;9.14;100.00;102209.09;5226304;28;20070;-74
2023/02/19 06:42:11;;;;;;;25.55;9.27;;;;;;;9.13;100.00;102215.41;5226306;28;20036;-74
2023/02/19 06:44:41;;;;;;;24.38;6.63;;;;;;;9.07;100.00;102227.47;5226697;28;20068;-73
2023/02/19 06:47:12;;;;;;;17.25;3.95;;;;;;;9.06;100.00;102218.56;5226153;28;20462;-74
2023/02/19 06:49:42;;;;;;;14.70;5.30;;;;;;;9.02;100.00;102227.81;5226233;28;20481;-73
2023/02/19 06:52:13;;;;;;;25.30;12.43;;;;;;;8.98;100.00;102226.34;5226043;28;20032;-74
2023/02/19 06:54:54;;;;;;;13.70;3.78;;;;;;;9.03;100.00;102232.19;5226588;28;20028;-74
2023/02/19 06:57:25;;;;;;;25.38;6.07;;;;;;;9.04;100.00;102235.75;5225890;28;20037;-73
2023/02/19 06:59:55;;;;;;;15.90;3.15;;;;;;;9.18;100.00;102248.00;5225481;28;20036;-74
2023/02/19 07:02:26;;;;;;;23.58;5.50;;;;;;;9.20;100.00;102236.22;5225899;28;20029;-73
2023/02/19 07:05:15;;;;;;;30.58;11.88;;;;;;;9.24;100.00;102245.72;5226123;28;20021;-74
2023/02/19 07:07:46;;;;;;;51.20;20.73;;;;;;;9.30;100.00;102250.56;5225690;28;20047;-74
2023/02/19 07:10:19;;;;;;;45.58;16.48;;;;;;;9.28;100.00;102248.97;5225796;28;20024;-74
2023/02/19 07:12:50;;;;;;;11.98;2.92;;;;;;;9.40;100.00;102258.72;5225697;28;20029;-74
2023/02/19 07:15:20;;;;;;;38.75;15.05;;;;;;;9.40;100.00;102266.75;5226215;28;20027;-73
2023/02/19 07:17:51;;;;;;;35.90;10.77;;;;;;;9.45;100.00;102263.69;5225255;28;20033;-74
2023/02/19 07:20:21;;;;;;;13.85;3.80;;;;;;;9.44;100.00;102265.53;5225763;28;20035;-74
2023/02/19 07:22:52;;;;;;;20.58;4.95;;;;;;;9.45;100.00;102269.06;5225873;28;20021;-74
2023/02/19 07:25:22;;;;;;;20.17;4.78;;;;;;;9.44;100.00;102272.69;5224436;28;20036;-73
2023/02/19 07:27:53;;;;;;;15.82;3.97;;;;;;;9.46;100.00;102268.94;5225435;28;20450;-74
2023/02/19 07:30:23;;;;;;;20.83;3.15;;;;;;;9.53;100.00;102274.63;5224296;28;20025;-74
2023/02/19 07:32:54;;;;;;;16.30;3.35;;;;;;;9.62;100.00;102281.91;5225614;28;20383;-74
2023/02/19 07:35:24;;;;;;;22.92;5.20;;;;;;;9.61;100.00;102280.22;5225721;28;20106;-74
2023/02/19 07:37:54;;;;;;;25.30;8.90;;;;;;;9.58;100.00;102284.00;5224952;28;20072;-74
2023/02/19 07:40:25;;;;;;;13.82;3.10;;;;;;;9.60;100.00;102292.78;5226575;28;20425;-74
2023/02/19 07:42:58;;;;;;;16.10;4.15;;;;;;;9.66;100.00;102288.72;5225498;28;20117;-74
2023/02/19 07:45:28;;;;;;;13.10;3.17;;;;;;;9.67;100.00;102303.84;5225825;28;20460;-74
2023/02/19 07:47:59;;;;;;;26.95;4.38;;;;;;;9.66;100.00;102301.28;5224843;28;20025;-74
2023/02/19 07:50:29;;;;;;;12.02;2.92;;;;;;;9.73;100.00;102300.66;5224923;28;20053;-74
2023/02/19 07:52:59;;;;;;;10.82;2.53;;;;;;;9.76;100.00;102311.13;5225150;28;20115;-74
2023/02/19 07:55:31;;;;;;;17.73;3.90;;;;;;;9.80;100.00;102303.69;5225236;28;20171;-74
2023/02/19 07:58:01;;;;;;;10.50;2.80;;;;;;;9.75;100.00;102317.47;5224434;28;20029;-74
2023/02/19 08:00:32;;;;;;;11.40;3.53;;;;;;;9.74;100.00;102322.94;5223594;28;20024;-74
2023/02/19 08:03:02;;;;;;;10.40;2.40;;;;;;;9.77;100.00;102326.22;5220430;28;20021;-74
2023/02/19 08:05:37;;;;;;;15.57;3.10;;;;;;;9.77;100.00;102328.06;5216382;28;20029;-74
2023/02/19 08:08:10;;;;;;;18.52;5.63;;;;;;;9.73;100.00;102324.75;5224721;28;20470;-74
2023/02/19 08:13:30;;;;;;;20.92;3.45;;;;;;;9.73;100.00;102348.88;5224973;28;20394;-74
2023/02/19 08:16:01;;;;;;;16.33;2.47;;;;;;;9.71;100.00;102352.69;5224812;28;20493;-74
2023/02/19 08:18:32;;;;;;;16.85;3.60;;;;;;;9.67;100.00;102362.78;5224428;28;20104;-73
2023/02/19 08:21:02;;;;;;;11.13;2.50;;;;;;;9.62;100.00;102370.34;5223480;28;20486;-74
2023/02/19 08:23:33;;;;;;;19.13;3.63;;;;;;;9.64;100.00;102378.25;5224516;28;20032;-74
2023/02/19 08:26:04;;;;;;;10.63;2.47;;;;;;;9.65;100.00;102378.16;5224528;28;20162;-74
2023/02/19 08:28:34;;;;;;;19.00;2.83;;;;;;;9.63;100.00;102377.41;5224243;28;20028;-74
2023/02/19 08:31:07;;;;;;;14.73;3.00;;;;;;;9.68;100.00;102382.41;5224254;28;20086;-74
2023/02/19 08:33:37;;;;;;;18.20;2.47;;;;;;;9.64;100.00;102384.50;5224416;28;20055;-74
2023/02/19 08:36:09;;;;;;;12.20;2.58;;;;;;;9.73;100.00;102386.41;5224007;28;20111;-73
2023/02/19 08:38:40;;;;;;;18.85;3.10;;;;;;;9.71;100.00;102392.88;5223969;28;20502;-74
2023/02/19 08:41:12;;;;;;;12.75;3.42;;;;;;;9.69;100.00;102395.69;5224196;28;20032;-74
2023/02/19 08:43:43;;;;;;;14.90;3.58;;;;;;;9.75;100.00;102391.66;5224252;28;20059;-74
2023/02/19 08:46:14;;;;;;;40.55;14.73;;;;;;;9.74;100.00;102404.22;5224369;28;20029;-74
2023/02/19 08:48:44;;;;;;;20.45;4.50;;;;;;;9.86;100.00;102402.38;5223679;28;20155;-74
2023/02/19 08:51:15;;;;;;;62.60;29.38;;;;;;;9.85;100.00;102414.06;5224060;28;20029;-74
2023/02/19 08:53:45;;;;;;;36.40;17.25;;;;;;;9.83;100.00;102416.00;5224158;28;20028;-74
2023/02/19 08:56:16;;;;;;;26.83;10.13;;;;;;;9.86;100.00;102413.09;5224008;28;20032;-74
2023/02/19 08:58:47;;;;;;;77.50;38.65;;;;;;;9.83;100.00;102421.38;5223604;28;20474;-74
2023/02/19 09:01:17;;;;;;;16.08;5.53;;;;;;;9.79;100.00;102417.25;5223491;28;20386;-74
2023/02/19 09:03:47;;;;;;;37.85;13.02;;;;;;;9.82;100.00;102420.50;5218888;28;20614;-73
2023/02/19 09:06:19;;;;;;;15.10;3.00;;;;;;;9.82;100.00;102415.16;5219975;28;20025;-74
2023/02/19 09:08:50;;;;;;;12.90;3.50;;;;;;;9.85;100.00;102422.13;5223644;28;20017;-74
2023/02/19 09:11:20;;;;;;;13.27;3.00;;;;;;;9.88;100.00;102413.81;5223700;28;20032;-74
2023/02/19 09:13:50;;;;;;;21.63;8.80;;;;;;;9.90;100.00;102417.22;5223728;28;20540;-74
2023/02/19 09:16:21;;;;;;;16.35;3.17;;;;;;;10.00;100.00;102418.19;5223648;28;20067;-73
2023/02/19 09:18:52;;;;;;;13.25;2.72;;;;;;;10.08;100.00;102422.91;5223805;28;20056;-74
2023/02/19 09:21:22;;;;;;;16.58;2.72;;;;;;;10.20;100.00;102424.63;5223822;28;20021;-74
2023/02/19 09:23:52;;;;;;;16.65;6.88;;;;;;;10.30;100.00;102425.59;5222385;28;20029;-74
2023/02/19 09:26:24;;;;;;;9.73;2.45;;;;;;;10.35;100.00;102439.47;5223107;28;20025;-73
2023/02/19 09:28:54;;;;;;;13.75;5.15;;;;;;;10.32;100.00;102422.78;5222466;28;20020;-74
2023/02/19 09:31:25;;;;;;;15.10;3.85;;;;;;;10.31;100.00;102426.44;5223531;28;20112;-74
2023/02/19 09:33:55;;;;;;;15.52;2.30;;;;;;;10.37;100.00;102423.25;5223833;28;20383;-74
2023/02/19 09:36:25;;;;;;;15.35;6.22;;;;;;;10.30;100.00;102433.66;5223295;28;20473;-73
2023/02/19 09:38:56;;;;;;;16.67;4.32;;;;;;;10.18;100.00;102431.91;5223348;28;20068;-74
2023/02/19 09:41:30;;;;;;;12.30;3.53;;;;;;;10.07;100.00;102430.13;5223377;28;20112;-74
2023/02/19 09:44:03;;;;;;;12.73;3.10;;;;;;;9.98;100.00;102436.22;5223521;28;20434;-74
2023/02/19 09:46:52;;;;;;;12.32;2.22;;;;;;;9.85;100.00;102432.84;5223256;28;20013;-73
2023/02/19 09:49:28;;;;;;;11.38;2.40;;;;;;;9.80;100.00;102429.66;5227716;28;20529;-74
2023/02/19 09:52:06;;;;;;;11.82;2.50;;;;;;;9.76;100.00;102438.94;5227415;28;20013;-74
2023/02/19 09:54:38;;;;;;;8.68;2.58;;;;;;;9.83;100.00;102438.28;5227650;28;20031;-74
2023/02/19 09:57:15;;;;;;;14.75;3.53;;;;;;;9.94;100.00;102437.47;5227354;28;20017;-74
2023/02/19 09:59:49;;;;;;;12.52;4.07;;;;;;;10.05;100.00;102447.31;5227055;28;20040;-74
2023/02/19 10:02:22;;;;;;;29.77;7.85;;;;;;;10.12;100.00;102448.50;5227578;28;20060;-74
2023/02/19 10:04:53;;;;;;;12.65;5.20;;;;;;;10.15;100.00;102455.47;5214046;28;20067;-74
2023/02/19 10:07:32;;;;;;;19.88;5.07;;;;;;;10.27;100.00;102462.53;5226881;28;20477;-74
2023/02/19 10:10:21;;;;;;;9.60;2.95;;;;;;;10.39;100.00;102456.16;5227186;28;20024;-74
2023/02/19 10:12:55;;;;;;;16.90;3.50;;;;;;;10.42;100.00;102458.59;5227172;28;20389;-75
2023/02/19 10:15:34;;;;;;;11.98;3.08;;;;;;;10.43;100.00;102462.97;5227485;28;20535;-75
2023/02/19 10:18:06;;;;;;;11.23;2.92;;;;;;;10.45;100.00;102474.47;5226663;28;20509;-74
2023/02/19 10:20:37;;;;;;;17.77;3.67;;;;;;;10.44;100.00;102474.56;5226876;28;20029;-74
2023/02/19 10:23:10;;;;;;;11.40;3.53;;;;;;;10.49;100.00;102480.41;5227231;28;20032;-74
2023/02/19 10:25:46;;;;;;;13.18;3.90;;;;;;;10.46;100.00;102478.00;5225818;28;20506;-75
2023/02/19 10:28:20;;;;;;;13.00;3.58;;;;;;;10.34;100.00;102474.47;5226808;28;20029;-75
2023/02/19 10:30:55;;;;;;;13.38;2.78;;;;;;;10.29;100.00;102492.75;5226541;28;20028;-75
2023/02/19 10:33:26;;;;;;;17.10;6.90;;;;;;;10.26;100.00;102493.03;5227187;28;20040;-75
2023/02/19 10:35:59;;;;;;;21.80;8.85;;;;;;;10.23;100.00;102490.56;5225728;28;20031;-74
2023/02/19 10:38:31;;;;;;;12.48;3.15;;;;;;;10.28;100.00;102491.91;5226314;28;20056;-75
2023/02/19 10:41:21;;;;;;;19.80;4.38;;;;;;;10.37;100.00;102501.91;5226500;28;20478;-74
2023/02/19 10:44:13;;;;;;;19.08;3.65;;;;;;;10.45;100.00;102503.97;5226655;28;20025;-74
2023/02/19 10:46:46;;;;;;;12.80;3.40;;;;;;;10.56;100.00;102509.31;5226363;28;20025;-74
2023/02/19 10:49:22;;;;;;;14.52;3.35;;;;;;;10.53;100.00;102511.38;5226549;28;20060;-75
2023/02/19 10:51:56;;;;;;;21.80;7.10;;;;;;;10.49;100.00;102516.16;5226459;28;20079;-74
2023/02/19 10:54:39;;;;;;;72.13;41.07;;;;;;;10.53;100.00;102528.34;5226467;28;20179;-74
2023/02/19 10:57:31;;;;;;;22.17;10.02;;;;;;;10.51;100.00;102529.47;5225263;28;20021;-75
2023/02/19 11:00:21;;;;;;;18.88;6.05;;;;;;;10.55;100.00;102544.34;5224527;28;20053;-74
2023/02/19 11:03:17;;;;;;;14.68;4.45;;;;;;;10.62;100.00;102537.47;5226023;28;20024;-75
2023/02/19 11:06:05;;;;;;;9.70;3.92;;;;;;;10.58;100.00;102538.69;5226069;28;20040;-74
2023/02/19 11:08:47;;;;;;;15.40;4.63;;;;;;;10.60;100.00;102529.56;5226327;28;20386;-74
2023/02/19 11:11:38;;;;;;;11.25;3.70;;;;;;;10.63;100.00;102540.03;5225956;28;20037;-75
2023/02/19 11:14:29;;;;;;;13.32;4.03;;;;;;;10.63;100.00;102539.19;5226125;28;20078;-74
2023/02/19 11:17:38;;;;;;;11.02;2.67;;;;;;;10.60;100.00;102537.59;5202655;28;20963;-74
2023/02/19 11:20:15;;;;;;;7.55;2.97;;;;;;;10.58;100.00;102539.53;5225864;28;20033;-75
2023/02/19 11:22:46;;;;;;;9.02;3.83;;;;;;;10.62;100.00;102529.41;5224490;28;20108;-74
2023/02/19 11:25:20;;;;;;;14.68;3.55;;;;;;;10.58;100.00;102536.88;5225853;28;20174;-75
2023/02/19 11:28:26;;;;;;;14.45;3.67;;;;;;;10.61;100.00;102541.13;5225451;28;20021;-74
2023/02/19 11:31:13;;;;;;;11.38;4.18;;;;;;;10.62;100.00;102542.84;5225415;28;20039;-74
2023/02/19 11:33:53;;;;;;;10.77;3.08;;;;;;;10.58;100.00;102539.53;5225596;28;20021;-74
2023/02/19 11:36:25;;;;;;;13.95;3.63;;;;;;;10.58;100.00;102546.75;5225182;28;20025;-74
2023/02/19 11:38:58;;;;;;;14.20;4.00;;;;;;;10.60;100.00;102548.34;5225393;28;20029;-75
2023/02/19 11:41:58;;;;;;;15.63;3.67;;;;;;;10.63;100.00;102539.19;5224873;28;20538;-74
2023/02/19 11:44:45;;;;;;;14.90;2.90;;;;;;;10.63;100.00;102540.03;5225192;28;20025;-75
2023/02/19 11:47:53;;;;;;;11.70;3.30;;;;;;;10.59;100.00;102538.59;5225112;28;20040;-74
2023/02/19 11:50:43;;;;;;;20.30;6.70;;;;;;;10.59;100.00;102543.09;5224856;28;20052;-75
2023/02/19 11:53:33;;;;;;;26.05;9.90;;;;;;;10.63;100.00;102544.53;5225008;28;20025;-75
2023/02/19 11:56:32;;;;;;;14.13;4.93;;;;;;;10.59;100.00;102543.09;5224174;28;20027;-74
2023/02/19 11:59:16;;;;;;;17.25;4.38;;;;;;;10.59;100.00;102537.72;5224802;28;20040;-74
2023/02/19 12:02:15;;;;;;;11.90;3.22;;;;;;;10.63;100.00;102534.66;5211535;28;20029;-74
2023/02/19 12:05:04;;;;;;;15.73;3.97;;;;;;;10.57;100.00;102534.31;5211078;28;20029;-74
2023/02/19 12:08:05;;;;;;;17.25;3.75;;;;;;;10.58;100.00;102525.28;5224300;28;20090;-74
2023/02/19 12:10:51;;;;;;;17.23;3.45;;;;;;;10.58;100.00;102499.28;5224375;28;20083;-74
2023/02/19 12:13:23;;;;;;;9.93;3.50;;;;;;;10.48;100.00;102503.72;5213403;28;20029;-74